^^
Your Local Weather - Clay, NY Station Historical Data
Daily Summary for February 21, 2018 Units:  Both    English   Metric
« Previous Day
Next Day »
Daily Weekly Monthly Yearly Custom
  High: Low: Average:
Temperature: 73.1 °F /  22.8 °C 33.4 °F /  0.8 °C 50.9 °F /  10.5 °C
Dew Point: 55.7 °F /  13.2 °C 28.2 °F /  -2.1 °C 42.9 °F /  6.1 °C
Humidity: 90% 52% 75%
Wind Speed: 8.0mph /  12.9km/h - 3.4mph /  5.5km/h
Wind Gust: 15.0mph /  24.1km/h - -
Wind- - WSW
Pressure: 30.57 in /  1035.1 hPa 30.01 in /  1016.1 hPa -
Precipitation: 0.02 in /  0.51 mm    
Historical Graphs
 
 
Tabular Data for February 21, 2018
Time Temperature Dew Point Pressure Wind Wind Speed Wind Gust Humidity Rainfall Rate (Hourly) solar
00:04 64.4 °F /  18 °C 54.0 °F /  12.2 °C 30.08in /  1018.5hPa SW 3.0mph /  4.8km/h 3.0mph /  4.8km/h 69% 0.00in /  0mm 0 W/m2
00:10 64.5 °F /  18.1 °C 54.1 °F /  12.3 °C 30.08in /  1018.5hPa SSW 3.0mph /  4.8km/h 3.0mph /  4.8km/h 69% 0.00in /  0mm 0 W/m2
00:16 64.7 °F /  18.2 °C 53.9 °F /  12.2 °C 30.08in /  1018.5hPa SSW 4.0mph /  6.4km/h 7.0mph /  11.3km/h 68% 0.00in /  0mm 0 W/m2
00:22 64.4 °F /  18 °C 53.6 °F /  12 °C 30.08in /  1018.5hPa South 4.0mph /  6.4km/h 4.0mph /  6.4km/h 68% 0.00in /  0mm 0 W/m2
00:28 64.2 °F /  17.9 °C 53.8 °F /  12.1 °C 30.08in /  1018.5hPa South 3.0mph /  4.8km/h 5.0mph /  8km/h 69% 0.00in /  0mm 0 W/m2
00:34 64.1 °F /  17.8 °C 53.7 °F /  12.1 °C 30.08in /  1018.5hPa SSW 3.0mph /  4.8km/h 3.0mph /  4.8km/h 69% 0.00in /  0mm 0 W/m2
00:40 63.9 °F /  17.7 °C 53.9 °F /  12.2 °C 30.09in /  1018.8hPa South 3.0mph /  4.8km/h 3.0mph /  4.8km/h 70% 0.00in /  0mm 0 W/m2
00:46 63.9 °F /  17.7 °C 53.9 °F /  12.2 °C 30.09in /  1018.8hPa SW 3.0mph /  4.8km/h 6.0mph /  9.7km/h 70% 0.00in /  0mm 0 W/m2
00:52 63.7 °F /  17.6 °C 53.7 °F /  12.1 °C 30.09in /  1018.8hPa SW 3.0mph /  4.8km/h 3.0mph /  4.8km/h 70% 0.00in /  0mm 0 W/m2
00:58 63.8 °F /  17.7 °C 53.8 °F /  12.1 °C 30.09in /  1018.8hPa SSW 3.0mph /  4.8km/h 3.0mph /  4.8km/h 70% 0.00in /  0mm 0 W/m2
01:04 63.7 °F /  17.6 °C 53.3 °F /  11.8 °C 30.09in /  1018.8hPa SSW 3.0mph /  4.8km/h 3.0mph /  4.8km/h 69% 0.00in /  0mm 0 W/m2
01:10 63.5 °F /  17.5 °C 53.5 °F /  11.9 °C 30.09in /  1018.8hPa SSW 2.0mph /  3.2km/h 2.0mph /  3.2km/h 70% 0.00in /  0mm 0 W/m2
01:16 63.1 °F /  17.3 °C 53.2 °F /  11.8 °C 30.09in /  1018.8hPa SSW 1.0mph /  1.6km/h 2.0mph /  3.2km/h 70% 0.00in /  0mm 0 W/m2
01:22 62.8 °F /  17.1 °C 53.3 °F /  11.8 °C 30.09in /  1018.8hPa SSW 1.0mph /  1.6km/h 1.0mph /  1.6km/h 71% 0.00in /  0mm 0 W/m2
01:28 62.8 °F /  17.1 °C 53.3 °F /  11.8 °C 30.09in /  1018.8hPa SSE 1.0mph /  1.6km/h 5.0mph /  8km/h 71% 0.00in /  0mm 0 W/m2
01:34 62.7 °F /  17.1 °C 53.2 °F /  11.8 °C 30.09in /  1018.8hPa South 2.0mph /  3.2km/h 2.0mph /  3.2km/h 71% 0.00in /  0mm 0 W/m2
01:40 62.2 °F /  16.8 °C 52.7 °F /  11.5 °C 30.09in /  1018.8hPa SSW 1.0mph /  1.6km/h 2.0mph /  3.2km/h 71% 0.00in /  0mm 0 W/m2
01:46 62.1 °F /  16.7 °C 53.0 °F /  11.7 °C 30.09in /  1018.8hPa South 2.0mph /  3.2km/h 4.0mph /  6.4km/h 72% 0.00in /  0mm 0 W/m2
01:52 62.3 °F /  16.8 °C 53.2 °F /  11.8 °C 30.08in /  1018.5hPa SSW 3.0mph /  4.8km/h 3.0mph /  4.8km/h 72% 0.00in /  0mm 0 W/m2
01:58 62.5 °F /  16.9 °C 53.0 °F /  11.7 °C 30.08in /  1018.5hPa SSW 3.0mph /  4.8km/h 3.0mph /  4.8km/h 71% 0.00in /  0mm 0 W/m2
02:04 63.0 °F /  17.2 °C 53.4 °F /  11.9 °C 30.08in /  1018.5hPa South 3.0mph /  4.8km/h 4.0mph /  6.4km/h 71% 0.00in /  0mm 0 W/m2
02:10 63.4 °F /  17.4 °C 53.4 °F /  11.9 °C 30.08in /  1018.5hPa SSW 4.0mph /  6.4km/h 4.0mph /  6.4km/h 70% 0.00in /  0mm 0 W/m2
02:16 63.5 °F /  17.5 °C 53.1 °F /  11.7 °C 30.07in /  1018.2hPa SSE 4.0mph /  6.4km/h 4.0mph /  6.4km/h 69% 0.00in /  0mm 0 W/m2
02:22 63.4 °F /  17.4 °C 53.4 °F /  11.9 °C 30.08in /  1018.5hPa WSW 3.0mph /  4.8km/h 5.0mph /  8km/h 70% 0.00in /  0mm 0 W/m2
02:28 64.0 °F /  17.8 °C 53.6 °F /  12 °C 30.07in /  1018.2hPa SW 4.0mph /  6.4km/h 5.0mph /  8km/h 69% 0.00in /  0mm 0 W/m2
02:34 64.3 °F /  17.9 °C 53.5 °F /  11.9 °C 30.07in /  1018.2hPa SSW 4.0mph /  6.4km/h 4.0mph /  6.4km/h 68% 0.00in /  0mm 0 W/m2
02:40 64.2 °F /  17.9 °C 53.4 °F /  11.9 °C 30.07in /  1018.2hPa SSW 3.0mph /  4.8km/h 4.0mph /  6.4km/h 68% 0.00in /  0mm 0 W/m2
02:46 64.1 °F /  17.8 °C 53.3 °F /  11.8 °C 30.07in /  1018.2hPa SSW 3.0mph /  4.8km/h 5.0mph /  8km/h 68% 0.00in /  0mm 0 W/m2
02:52 63.8 °F /  17.7 °C 53.4 °F /  11.9 °C 30.07in /  1018.2hPa SSW 2.0mph /  3.2km/h 3.0mph /  4.8km/h 69% 0.00in /  0mm 0 W/m2
02:58 63.4 °F /  17.4 °C 53.0 °F /  11.7 °C 30.07in /  1018.2hPa SSW 2.0mph /  3.2km/h 3.0mph /  4.8km/h 69% 0.00in /  0mm 0 W/m2
03:04 63.1 °F /  17.3 °C 53.2 °F /  11.8 °C 30.07in /  1018.2hPa SSE 2.0mph /  3.2km/h 2.0mph /  3.2km/h 70% 0.00in /  0mm 0 W/m2
03:10 63.1 °F /  17.3 °C 53.2 °F /  11.8 °C 30.07in /  1018.2hPa SSE 2.0mph /  3.2km/h 4.0mph /  6.4km/h 70% 0.00in /  0mm 0 W/m2
03:16 63.0 °F /  17.2 °C 53.1 °F /  11.7 °C 30.07in /  1018.2hPa South 2.0mph /  3.2km/h 4.0mph /  6.4km/h 70% 0.00in /  0mm 0 W/m2
03:22 63.1 °F /  17.3 °C 53.2 °F /  11.8 °C 30.07in /  1018.2hPa SSW 3.0mph /  4.8km/h 4.0mph /  6.4km/h 70% 0.00in /  0mm 0 W/m2
03:28 63.5 °F /  17.5 °C 53.1 °F /  11.7 °C 30.06in /  1017.8hPa South 4.0mph /  6.4km/h 4.0mph /  6.4km/h 69% 0.00in /  0mm 0 W/m2
03:34 63.4 °F /  17.4 °C 52.7 °F /  11.5 °C 30.06in /  1017.8hPa South 4.0mph /  6.4km/h 4.0mph /  6.4km/h 68% 0.00in /  0mm 0 W/m2
03:40 63.6 °F /  17.6 °C 52.8 °F /  11.6 °C 30.06in /  1017.8hPa South 3.0mph /  4.8km/h 3.0mph /  4.8km/h 68% 0.00in /  0mm 0 W/m2
03:46 63.3 °F /  17.4 °C 52.6 °F /  11.4 °C 30.06in /  1017.8hPa South 4.0mph /  6.4km/h 6.0mph /  9.7km/h 68% 0.00in /  0mm 0 W/m2
03:52 63.2 °F /  17.3 °C 52.5 °F /  11.4 °C 30.05in /  1017.5hPa South 3.0mph /  4.8km/h 4.0mph /  6.4km/h 68% 0.00in /  0mm 0 W/m2
03:58 63.1 °F /  17.3 °C 52.8 °F /  11.6 °C 30.05in /  1017.5hPa SSW 2.0mph /  3.2km/h 5.0mph /  8km/h 69% 0.00in /  0mm 0 W/m2
04:04 63.3 °F /  17.4 °C 52.6 °F /  11.4 °C 30.05in /  1017.5hPa SSE 3.0mph /  4.8km/h 3.0mph /  4.8km/h 68% 0.00in /  0mm 0 W/m2
04:10 63.6 °F /  17.6 °C 52.8 °F /  11.6 °C 30.05in /  1017.5hPa SSE 4.0mph /  6.4km/h 5.0mph /  8km/h 68% 0.00in /  0mm 0 W/m2
04:16 63.6 °F /  17.6 °C 52.8 °F /  11.6 °C 30.05in /  1017.5hPa South 4.0mph /  6.4km/h 5.0mph /  8km/h 68% 0.00in /  0mm 0 W/m2
04:24 63.1 °F /  17.3 °C 52.4 °F /  11.3 °C 30.05in /  1017.5hPa South 3.0mph /  4.8km/h 5.0mph /  8km/h 68% 0.00in /  0mm 0 W/m2
04:30 63.3 °F /  17.4 °C 52.6 °F /  11.4 °C 30.05in /  1017.5hPa South 3.0mph /  4.8km/h 4.0mph /  6.4km/h 68% 0.00in /  0mm 0 W/m2
04:36 63.1 °F /  17.3 °C 52.4 °F /  11.3 °C 30.05in /  1017.5hPa SW 3.0mph /  4.8km/h 5.0mph /  8km/h 68% 0.00in /  0mm 0 W/m2
04:42 62.9 °F /  17.2 °C 52.2 °F /  11.2 °C 30.05in /  1017.5hPa SSW 3.0mph /  4.8km/h 5.0mph /  8km/h 68% 0.00in /  0mm 0 W/m2
04:48 63.0 °F /  17.2 °C 52.7 °F /  11.5 °C 30.05in /  1017.5hPa SSW 3.0mph /  4.8km/h 6.0mph /  9.7km/h 69% 0.00in /  0mm 0 W/m2
04:54 62.8 °F /  17.1 °C 52.1 °F /  11.2 °C 30.05in /  1017.5hPa South 3.0mph /  4.8km/h 3.0mph /  4.8km/h 68% 0.00in /  0mm 0 W/m2
05:00 62.7 °F /  17.1 °C 52.4 °F /  11.3 °C 30.05in /  1017.5hPa South 3.0mph /  4.8km/h 3.0mph /  4.8km/h 69% 0.00in /  0mm 0 W/m2
05:06 62.8 °F /  17.1 °C 52.5 °F /  11.4 °C 30.05in /  1017.5hPa SSW 3.0mph /  4.8km/h 5.0mph /  8km/h 69% 0.00in /  0mm 0 W/m2
05:12 62.7 °F /  17.1 °C 52.4 °F /  11.3 °C 30.05in /  1017.5hPa WSW 3.0mph /  4.8km/h 3.0mph /  4.8km/h 69% 0.00in /  0mm 0 W/m2
05:18 62.5 °F /  16.9 °C 52.2 °F /  11.2 °C 30.05in /  1017.5hPa SSE 2.0mph /  3.2km/h 5.0mph /  8km/h 69% 0.00in /  0mm 0 W/m2
05:24 62.9 °F /  17.2 °C 52.6 °F /  11.4 °C 30.05in /  1017.5hPa South 4.0mph /  6.4km/h 5.0mph /  8km/h 69% 0.00in /  0mm 0 W/m2
05:30 63.0 °F /  17.2 °C 52.3 °F /  11.3 °C 30.05in /  1017.5hPa South 4.0mph /  6.4km/h 4.0mph /  6.4km/h 68% 0.00in /  0mm 0 W/m2
05:36 62.4 °F /  16.9 °C 52.1 °F /  11.2 °C 30.05in /  1017.5hPa SSE 4.0mph /  6.4km/h 9.0mph /  14.5km/h 69% 0.00in /  0mm 0 W/m2
05:42 62.5 °F /  16.9 °C 52.2 °F /  11.2 °C 30.06in /  1017.8hPa West 5.0mph /  8km/h 5.0mph /  8km/h 69% 0.00in /  0mm 0 W/m2
05:48 62.2 °F /  16.8 °C 52.3 °F /  11.3 °C 30.05in /  1017.5hPa South 3.0mph /  4.8km/h 6.0mph /  9.7km/h 70% 0.00in /  0mm 0 W/m2
05:54 62.4 °F /  16.9 °C 52.1 °F /  11.2 °C 30.05in /  1017.5hPa SW 4.0mph /  6.4km/h 4.0mph /  6.4km/h 69% 0.00in /  0mm 0 W/m2
06:00 62.1 °F /  16.7 °C 52.2 °F /  11.2 °C 30.05in /  1017.5hPa South 3.0mph /  4.8km/h 4.0mph /  6.4km/h 70% 0.00in /  0mm 0 W/m2
06:06 61.9 °F /  16.6 °C 52.0 °F /  11.1 °C 30.05in /  1017.5hPa South 3.0mph /  4.8km/h 4.0mph /  6.4km/h 70% 0.00in /  0mm 0 W/m2
06:12 61.6 °F /  16.4 °C 52.1 °F /  11.2 °C 30.05in /  1017.5hPa South 3.0mph /  4.8km/h 3.0mph /  4.8km/h 71% 0.00in /  0mm 0 W/m2
06:18 61.7 °F /  16.5 °C 52.2 °F /  11.2 °C 30.05in /  1017.5hPa South 3.0mph /  4.8km/h 4.0mph /  6.4km/h 71% 0.00in /  0mm 0 W/m2
06:24 61.6 °F /  16.4 °C 52.1 °F /  11.2 °C 30.05in /  1017.5hPa South 3.0mph /  4.8km/h 4.0mph /  6.4km/h 71% 0.00in /  0mm 0 W/m2
06:30 61.4 °F /  16.3 °C 51.9 °F /  11.1 °C 30.05in /  1017.5hPa South 3.0mph /  4.8km/h 3.0mph /  4.8km/h 71% 0.00in /  0mm 0 W/m2
06:36 61.5 °F /  16.4 °C 52.0 °F /  11.1 °C 30.05in /  1017.5hPa South 3.0mph /  4.8km/h 4.0mph /  6.4km/h 71% 0.00in /  0mm 0 W/m2
06:42 61.2 °F /  16.2 °C 51.7 °F /  10.9 °C 30.04in /  1017.2hPa South 2.0mph /  3.2km/h 3.0mph /  4.8km/h 71% 0.00in /  0mm 0 W/m2
06:48 61.0 °F /  16.1 °C 51.9 °F /  11.1 °C 30.04in /  1017.2hPa SSE 2.0mph /  3.2km/h 3.0mph /  4.8km/h 72% 0.00in /  0mm 0 W/m2
06:54 61.0 °F /  16.1 °C 51.9 °F /  11.1 °C 30.04in /  1017.2hPa South 3.0mph /  4.8km/h 5.0mph /  8km/h 72% 0.00in /  0mm 0 W/m2
07:00 61.4 °F /  16.3 °C 51.9 °F /  11.1 °C 30.04in /  1017.2hPa SSW 2.0mph /  3.2km/h 2.0mph /  3.2km/h 71% 0.00in /  0mm 7 W/m2
07:06 61.6 °F /  16.4 °C 52.1 °F /  11.2 °C 30.04in /  1017.2hPa SSW 2.0mph /  3.2km/h 2.0mph /  3.2km/h 71% 0.00in /  0mm 9 W/m2
07:12 61.6 °F /  16.4 °C 51.7 °F /  10.9 °C 30.04in /  1017.2hPa South 2.0mph /  3.2km/h 3.0mph /  4.8km/h 70% 0.00in /  0mm 11 W/m2
07:18 61.9 °F /  16.6 °C 52.0 °F /  11.1 °C 30.04in /  1017.2hPa South 2.0mph /  3.2km/h 4.0mph /  6.4km/h 70% 0.00in /  0mm 18 W/m2
07:24 62.1 °F /  16.7 °C 51.8 °F /  11 °C 30.05in /  1017.5hPa SSW 3.0mph /  4.8km/h 3.0mph /  4.8km/h 69% 0.00in /  0mm 18 W/m2
07:30 62.1 °F /  16.7 °C 51.8 °F /  11 °C 30.04in /  1017.2hPa South 2.0mph /  3.2km/h 2.0mph /  3.2km/h 69% 0.00in /  0mm 26 W/m2
07:36 62.3 °F /  16.8 °C 52.0 °F /  11.1 °C 30.04in /  1017.2hPa SSW 2.0mph /  3.2km/h 3.0mph /  4.8km/h 69% 0.00in /  0mm 30 W/m2
07:42 62.9 °F /  17.2 °C 52.2 °F /  11.2 °C 30.04in /  1017.2hPa SW 3.0mph /  4.8km/h 3.0mph /  4.8km/h 68% 0.00in /  0mm 42 W/m2
07:48 63.6 °F /  17.6 °C 52.4 °F /  11.3 °C 30.04in /  1017.2hPa SW 3.0mph /  4.8km/h 4.0mph /  6.4km/h 67% 0.00in /  0mm 39 W/m2
07:54 63.8 °F /  17.7 °C 52.2 °F /  11.2 °C 30.03in /  1016.8hPa South 3.0mph /  4.8km/h 5.0mph /  8km/h 66% 0.00in /  0mm 47 W/m2
08:00 64.2 °F /  17.9 °C 52.6 °F /  11.4 °C 30.03in /  1016.8hPa SW 2.0mph /  3.2km/h 5.0mph /  8km/h 66% 0.00in /  0mm 76 W/m2
08:06 64.9 °F /  18.3 °C 52.4 °F /  11.3 °C 30.03in /  1016.8hPa SW 3.0mph /  4.8km/h 5.0mph /  8km/h 64% 0.00in /  0mm 104 W/m2
08:12 65.6 °F /  18.7 °C 52.7 °F /  11.5 °C 30.03in /  1016.8hPa SW 3.0mph /  4.8km/h 5.0mph /  8km/h 63% 0.00in /  0mm 95 W/m2
08:18 66.5 °F /  19.2 °C 53.1 °F /  11.7 °C 30.03in /  1016.8hPa SSE 5.0mph /  8km/h 5.0mph /  8km/h 62% 0.00in /  0mm 104 W/m2
08:24 66.7 °F /  19.3 °C 52.8 °F /  11.6 °C 30.03in /  1016.8hPa SSW 5.0mph /  8km/h 5.0mph /  8km/h 61% 0.00in /  0mm 102 W/m2
08:30 66.9 °F /  19.4 °C 52.6 °F /  11.4 °C 30.01in /  1016.1hPa South 6.0mph /  9.7km/h 6.0mph /  9.7km/h 60% 0.00in /  0mm 135 W/m2
08:36 67.2 °F /  19.6 °C 52.8 °F /  11.6 °C 30.02in /  1016.5hPa SW 6.0mph /  9.7km/h 11.0mph /  17.7km/h 60% 0.00in /  0mm 181 W/m2
08:42 67.6 °F /  19.8 °C 53.2 °F /  11.8 °C 30.02in /  1016.5hPa South 6.0mph /  9.7km/h 8.0mph /  12.9km/h 60% 0.00in /  0mm 181 W/m2
08:48 68.2 °F /  20.1 °C 52.9 °F /  11.6 °C 30.02in /  1016.5hPa WSW 6.0mph /  9.7km/h 8.0mph /  12.9km/h 58% 0.00in /  0mm 207 W/m2
08:54 68.6 °F /  20.3 °C 53.2 °F /  11.8 °C 30.02in /  1016.5hPa SW 7.0mph /  11.3km/h 10.0mph /  16.1km/h 58% 0.00in /  0mm 125 W/m2
09:00 68.8 °F /  20.4 °C 52.9 °F /  11.6 °C 30.03in /  1016.8hPa SSE 8.0mph /  12.9km/h 8.0mph /  12.9km/h 57% 0.00in /  0mm 88 W/m2
09:06 68.6 °F /  20.3 °C 53.2 °F /  11.8 °C 30.02in /  1016.5hPa South 8.0mph /  12.9km/h 10.0mph /  16.1km/h 58% 0.00in /  0mm 83 W/m2
09:12 68.2 °F /  20.1 °C 53.3 °F /  11.8 °C 30.02in /  1016.5hPa SSW 7.0mph /  11.3km/h 7.0mph /  11.3km/h 59% 0.00in /  0mm 148 W/m2
09:18 68.2 °F /  20.1 °C 53.3 °F /  11.8 °C 30.02in /  1016.5hPa SW 6.0mph /  9.7km/h 7.0mph /  11.3km/h 59% 0.00in /  0mm 160 W/m2
09:24 68.5 °F /  20.3 °C 53.1 °F /  11.7 °C 30.02in /  1016.5hPa West 6.0mph /  9.7km/h 7.0mph /  11.3km/h 58% 0.00in /  0mm 125 W/m2
09:30 68.7 °F /  20.4 °C 53.3 °F /  11.8 °C 30.02in /  1016.5hPa SSE 7.0mph /  11.3km/h 8.0mph /  12.9km/h 58% 0.00in /  0mm 162 W/m2
09:36 69.0 °F /  20.6 °C 53.6 °F /  12 °C 30.02in /  1016.5hPa WSW 6.0mph /  9.7km/h 9.0mph /  14.5km/h 58% 0.00in /  0mm 197 W/m2
09:42 69.4 °F /  20.8 °C 53.5 °F /  11.9 °C 30.02in /  1016.5hPa SW 6.0mph /  9.7km/h 6.0mph /  9.7km/h 57% 0.00in /  0mm 188 W/m2
09:48 69.7 °F /  20.9 °C 53.8 °F /  12.1 °C 30.02in /  1016.5hPa SW 6.0mph /  9.7km/h 7.0mph /  11.3km/h 57% 0.00in /  0mm 253 W/m2
09:54 70.6 °F /  21.4 °C 55.1 °F /  12.8 °C 30.02in /  1016.5hPa SW 5.0mph /  8km/h 6.0mph /  9.7km/h 58% 0.00in /  0mm 454 W/m2
10:00 71.4 °F /  21.9 °C 54.9 °F /  12.7 °C 30.02in /  1016.5hPa South 4.0mph /  6.4km/h 10.0mph /  16.1km/h 56% 0.00in /  0mm 316 W/m2
10:06 71.3 °F /  21.8 °C 54.3 °F /  12.4 °C 30.01in /  1016.1hPa SSW 6.0mph /  9.7km/h 10.0mph /  16.1km/h 55% 0.00in /  0mm 425 W/m2
10:12 72.1 °F /  22.3 °C 55.5 °F /  13.1 °C 30.01in /  1016.1hPa SW 5.0mph /  8km/h 6.0mph /  9.7km/h 56% 0.00in /  0mm 563 W/m2
10:18 72.3 °F /  22.4 °C 54.7 °F /  12.6 °C 30.01in /  1016.1hPa West 5.0mph /  8km/h 10.0mph /  16.1km/h 54% 0.00in /  0mm 367 W/m2
10:24 72.3 °F /  22.4 °C 54.7 °F /  12.6 °C 30.01in /  1016.1hPa SSW 6.0mph /  9.7km/h 6.0mph /  9.7km/h 54% 0.00in /  0mm 573 W/m2
10:30 73.0 °F /  22.8 °C 54.9 °F /  12.7 °C 30.01in /  1016.1hPa SW 7.0mph /  11.3km/h 10.0mph /  16.1km/h 53% 0.00in /  0mm 721 W/m2
10:36 73.1 °F /  22.8 °C 54.4 °F /  12.4 °C 30.02in /  1016.5hPa WSW 8.0mph /  12.9km/h 15.0mph /  24.1km/h 52% 0.00in /  0mm 700 W/m2
10:42 72.8 °F /  22.7 °C 55.7 °F /  13.2 °C 30.02in /  1016.5hPa SW 8.0mph /  12.9km/h 9.0mph /  14.5km/h 55% 0.00in /  0mm 708 W/m2
10:48 72.2 °F /  22.3 °C 54.1 °F /  12.3 °C 30.04in /  1017.2hPa WNW 7.0mph /  11.3km/h 9.0mph /  14.5km/h 53% 0.00in /  0mm 125 W/m2
10:54 68.4 °F /  20.2 °C 52.6 °F /  11.4 °C 30.05in /  1017.5hPa NW 7.0mph /  11.3km/h 9.0mph /  14.5km/h 57% 0.00in /  0mm 251 W/m2
11:00 66.0 °F /  18.9 °C 52.6 °F /  11.4 °C 30.06in /  1017.8hPa WNW 6.0mph /  9.7km/h 7.0mph /  11.3km/h 62% 0.00in /  0mm 422 W/m2
11:06 64.3 °F /  17.9 °C 51.9 °F /  11.1 °C 30.07in /  1018.2hPa NW 6.0mph /  9.7km/h 9.0mph /  14.5km/h 64% 0.00in /  0mm 237 W/m2
11:12 62.5 °F /  16.9 °C 51.4 °F /  10.8 °C 30.08in /  1018.5hPa NW 6.0mph /  9.7km/h 7.0mph /  11.3km/h 67% 0.00in /  0mm 121 W/m2
11:18 60.8 °F /  16 °C 51.0 °F /  10.6 °C 30.09in /  1018.8hPa West 7.0mph /  11.3km/h 7.0mph /  11.3km/h 70% 0.00in /  0mm 53 W/m2
11:24 59.8 °F /  15.4 °C 50.8 °F /  10.4 °C 30.10in /  1019.2hPa WNW 7.0mph /  11.3km/h 14.0mph /  22.5km/h 72% 0.00in /  0mm 37 W/m2
11:30 58.5 °F /  14.7 °C 51.0 °F /  10.6 °C 30.11in /  1019.5hPa WNW 7.0mph /  11.3km/h 7.0mph /  11.3km/h 76% 0.00in /  0mm 46 W/m2
11:36 56.9 °F /  13.8 °C 49.8 °F /  9.9 °C 30.11in /  1019.5hPa WNW 7.0mph /  11.3km/h 9.0mph /  14.5km/h 77% 0.00in /  0mm 49 W/m2
11:42 53.9 °F /  12.2 °C 47.9 °F /  8.8 °C 30.13in /  1020.2hPa NW 8.0mph /  12.9km/h 8.0mph /  12.9km/h 80% 0.00in /  0mm 51 W/m2
11:48 51.2 °F /  10.7 °C 45.6 °F /  7.6 °C 30.14in /  1020.5hPa NNW 8.0mph /  12.9km/h 12.0mph /  19.3km/h 81% 0.00in /  0mm 40 W/m2
11:54 49.4 °F /  9.7 °C 44.5 °F /  6.9 °C 30.15in /  1020.9hPa WNW 7.0mph /  11.3km/h 8.0mph /  12.9km/h 83% 0.00in /  0mm 26 W/m2
12:00 48.3 °F /  9.1 °C 44.0 °F /  6.7 °C 30.16in /  1021.2hPa WNW 6.0mph /  9.7km/h 6.0mph /  9.7km/h 85% 0.00in /  0mm 25 W/m2
12:06 47.6 °F /  8.7 °C 43.6 °F /  6.4 °C 30.17in /  1021.6hPa NW 5.0mph /  8km/h 6.0mph /  9.7km/h 86% 0.00in /  0mm 25 W/m2
12:12 46.9 °F /  8.3 °C 43.2 °F /  6.2 °C 30.17in /  1021.6hPa WNW 4.0mph /  6.4km/h 8.0mph /  12.9km/h 87% 0.00in /  0mm 18 W/m2
12:18 46.3 °F /  7.9 °C 42.6 °F /  5.9 °C 30.18in /  1021.9hPa WNW 5.0mph /  8km/h 10.0mph /  16.1km/h 87% 0.00in /  0mm 16 W/m2
12:24 45.7 °F /  7.6 °C 42.3 °F /  5.7 °C 30.19in /  1022.2hPa West 4.0mph /  6.4km/h 5.0mph /  8km/h 88% 0.00in /  0mm 28 W/m2
12:30 45.2 °F /  7.3 °C 41.9 °F /  5.5 °C 30.19in /  1022.2hPa NW 5.0mph /  8km/h 6.0mph /  9.7km/h 88% 0.00in /  0mm 28 W/m2
12:36 44.8 °F /  7.1 °C 41.5 °F /  5.3 °C 30.20in /  1022.6hPa WNW 5.0mph /  8km/h 7.0mph /  11.3km/h 88% 0.00in /  0mm 28 W/m2
12:42 44.4 °F /  6.9 °C 41.4 °F /  5.2 °C 30.20in /  1022.6hPa WNW 4.0mph /  6.4km/h 5.0mph /  8km/h 89% 0.00in /  0mm 21 W/m2
12:48 44.0 °F /  6.7 °C 41.0 °F /  5 °C 30.22in /  1023.2hPa WNW 3.0mph /  4.8km/h 5.0mph /  8km/h 89% 0.00in /  0mm 21 W/m2
12:54 43.7 °F /  6.5 °C 40.7 °F /  4.8 °C 30.22in /  1023.2hPa WNW 3.0mph /  4.8km/h 5.0mph /  8km/h 89% 0.00in /  0mm 16 W/m2
13:00 43.2 °F /  6.2 °C 40.2 °F /  4.6 °C 30.22in /  1023.2hPa WNW 4.0mph /  6.4km/h 7.0mph /  11.3km/h 89% 0.00in /  0mm 25 W/m2
13:06 42.9 °F /  6.1 °C 39.9 °F /  4.4 °C 30.23in /  1023.6hPa WNW 4.0mph /  6.4km/h 7.0mph /  11.3km/h 89% 0.00in /  0mm 30 W/m2
13:12 42.7 °F /  5.9 °C 39.7 °F /  4.3 °C 30.23in /  1023.6hPa NW 4.0mph /  6.4km/h 4.0mph /  6.4km/h 89% 0.00in /  0mm 28 W/m2
13:18 42.7 °F /  5.9 °C 40.0 °F /  4.4 °C 30.24in /  1023.9hPa WNW 3.0mph /  4.8km/h 4.0mph /  6.4km/h 90% 0.00in /  0mm 39 W/m2
13:24 42.4 °F /  5.8 °C 39.7 °F /  4.3 °C 30.24in /  1023.9hPa NW 3.0mph /  4.8km/h 5.0mph /  8km/h 90% 0.00in /  0mm 35 W/m2
13:30 42.3 °F /  5.7 °C 39.6 °F /  4.2 °C 30.25in /  1024.3hPa NW 3.0mph /  4.8km/h 3.0mph /  4.8km/h 90% 0.00in /  0mm 51 W/m2
13:36 42.1 °F /  5.6 °C 39.4 °F /  4.1 °C 30.26in /  1024.6hPa NW 2.0mph /  3.2km/h 3.0mph /  4.8km/h 90% 0.00in /  0mm 40 W/m2
13:42 42.0 °F /  5.6 °C 39.3 °F /  4.1 °C 30.26in /  1024.6hPa NW 2.0mph /  3.2km/h 3.0mph /  4.8km/h 90% 0.00in /  0mm 47 W/m2
13:48 41.9 °F /  5.5 °C 39.2 °F /  4 °C 30.26in /  1024.6hPa NW 1.0mph /  1.6km/h 3.0mph /  4.8km/h 90% 0.00in /  0mm 63 W/m2
13:56 41.8 °F /  5.4 °C 39.1 °F /  3.9 °C 30.27in /  1024.9hPa WNW 2.0mph /  3.2km/h 3.0mph /  4.8km/h 90% 0.00in /  0mm 49 W/m2
14:02 41.7 °F /  5.4 °C 39.0 °F /  3.9 °C 30.28in /  1025.3hPa West 2.0mph /  3.2km/h 3.0mph /  4.8km/h 90% 0.00in /  0mm 44 W/m2
14:08 41.5 °F /  5.3 °C 38.8 °F /  3.8 °C 30.29in /  1025.6hPa NW 3.0mph /  4.8km/h 3.0mph /  4.8km/h 90% 0.00in /  0mm 53 W/m2
14:14 41.3 °F /  5.2 °C 38.6 °F /  3.7 °C 30.30in /  1026hPa NW 3.0mph /  4.8km/h 8.0mph /  12.9km/h 90% 0.00in /  0mm 58 W/m2
14:20 41.0 °F /  5 °C 38.3 °F /  3.5 °C 30.30in /  1026hPa West 4.0mph /  6.4km/h 4.0mph /  6.4km/h 90% 0.00in /  0mm 58 W/m2
14:26 40.7 °F /  4.8 °C 38.0 °F /  3.3 °C 30.30in /  1026hPa WNW 5.0mph /  8km/h 6.0mph /  9.7km/h 90% 0.00in /  0mm 81 W/m2
14:32 40.5 °F /  4.7 °C 37.8 °F /  3.2 °C 30.31in /  1026.3hPa NNW 5.0mph /  8km/h 5.0mph /  8km/h 90% 0.00in /  0mm 58 W/m2
14:38 40.4 °F /  4.7 °C 37.7 °F /  3.2 °C 30.32in /  1026.6hPa NW 4.0mph /  6.4km/h 5.0mph /  8km/h 90% 0.00in /  0mm 40 W/m2
14:44 39.9 °F /  4.4 °C 36.9 °F /  2.7 °C 30.32in /  1026.6hPa NW 4.0mph /  6.4km/h 5.0mph /  8km/h 89% 0.00in /  0mm 39 W/m2
14:50 39.6 °F /  4.2 °C 36.6 °F /  2.6 °C 30.33in /  1027hPa WNW 3.0mph /  4.8km/h 3.0mph /  4.8km/h 89% 0.00in /  0mm 49 W/m2
14:56 39.6 °F /  4.2 °C 36.6 °F /  2.6 °C 30.32in /  1026.6hPa NW 2.0mph /  3.2km/h 3.0mph /  4.8km/h 89% 0.00in /  0mm 72 W/m2
15:02 39.4 °F /  4.1 °C 36.4 °F /  2.4 °C 30.34in /  1027.3hPa West 4.0mph /  6.4km/h 9.0mph /  14.5km/h 89% 0.00in /  0mm 62 W/m2
15:08 39.2 °F /  4 °C 35.9 °F /  2.2 °C 30.33in /  1027hPa WNW 5.0mph /  8km/h 9.0mph /  14.5km/h 88% 0.00in /  0mm 49 W/m2
15:14 39.3 °F /  4.1 °C 35.8 °F /  2.1 °C 30.34in /  1027.3hPa West 4.0mph /  6.4km/h 5.0mph /  8km/h 87% 0.00in /  0mm 83 W/m2
15:20 39.3 °F /  4.1 °C 35.8 °F /  2.1 °C 30.34in /  1027.3hPa West 4.0mph /  6.4km/h 5.0mph /  8km/h 87% 0.00in /  0mm 47 W/m2
15:26 39.2 °F /  4 °C 35.4 °F /  1.9 °C 30.35in /  1027.7hPa NW 5.0mph /  8km/h 9.0mph /  14.5km/h 86% 0.00in /  0mm 46 W/m2
15:32 39.0 °F /  3.9 °C 34.9 °F /  1.6 °C 30.36in /  1028hPa NW 6.0mph /  9.7km/h 6.0mph /  9.7km/h 85% 0.00in /  0mm 53 W/m2
15:38 38.9 °F /  3.8 °C 34.5 °F /  1.4 °C 30.37in /  1028.3hPa WNW 5.0mph /  8km/h 6.0mph /  9.7km/h 84% 0.00in /  0mm 56 W/m2
15:44 38.9 °F /  3.8 °C 34.5 °F /  1.4 °C 30.37in /  1028.3hPa WNW 4.0mph /  6.4km/h 6.0mph /  9.7km/h 84% 0.00in /  0mm 51 W/m2
15:50 38.5 °F /  3.6 °C 33.8 °F /  1 °C 30.38in /  1028.7hPa NNW 6.0mph /  9.7km/h 10.0mph /  16.1km/h 83% 0.00in /  0mm 47 W/m2
15:56 38.1 °F /  3.4 °C 33.1 °F /  0.6 °C 30.38in /  1028.7hPa NW 7.0mph /  11.3km/h 10.0mph /  16.1km/h 82% 0.00in /  0mm 46 W/m2
16:02 37.9 °F /  3.3 °C 32.9 °F /  0.5 °C 30.39in /  1029hPa WNW 5.0mph /  8km/h 7.0mph /  11.3km/h 82% 0.00in /  0mm 47 W/m2
16:08 37.7 °F /  3.2 °C 32.7 °F /  0.4 °C 30.39in /  1029hPa NW 6.0mph /  9.7km/h 7.0mph /  11.3km/h 82% 0.00in /  0mm 35 W/m2
16:14 37.7 °F /  3.2 °C 32.7 °F /  0.4 °C 30.39in /  1029hPa NW 5.0mph /  8km/h 6.0mph /  9.7km/h 82% 0.00in /  0mm 51 W/m2
16:20 37.7 °F /  3.2 °C 32.7 °F /  0.4 °C 30.38in /  1028.7hPa WNW 4.0mph /  6.4km/h 4.0mph /  6.4km/h 82% 0.00in /  0mm 60 W/m2
16:26 37.7 °F /  3.2 °C 32.7 °F /  0.4 °C 30.39in /  1029hPa WNW 4.0mph /  6.4km/h 4.0mph /  6.4km/h 82% 0.00in /  0mm 37 W/m2
16:32 37.6 °F /  3.1 °C 32.9 °F /  0.5 °C 30.39in /  1029hPa WNW 4.0mph /  6.4km/h 4.0mph /  6.4km/h 83% 0.00in /  0mm 40 W/m2
16:38 37.5 °F /  3.1 °C 32.5 °F /  0.3 °C 30.39in /  1029hPa WNW 4.0mph /  6.4km/h 6.0mph /  9.7km/h 82% 0.00in /  0mm 35 W/m2
16:44 37.6 °F /  3.1 °C 32.9 °F /  0.5 °C 30.39in /  1029hPa NW 3.0mph /  4.8km/h 6.0mph /  9.7km/h 83% 0.00in /  0mm 32 W/m2
16:50 37.5 °F /  3.1 °C 32.8 °F /  0.4 °C 30.39in /  1029hPa NW 3.0mph /  4.8km/h 3.0mph /  4.8km/h 83% 0.00in /  0mm 35 W/m2
16:56 37.5 °F /  3.1 °C 32.8 °F /  0.4 °C 30.40in /  1029.3hPa WNW 3.0mph /  4.8km/h 4.0mph /  6.4km/h 83% 0.00in /  0mm 26 W/m2
17:02 37.5 °F /  3.1 °C 32.8 °F /  0.4 °C 30.41in /  1029.7hPa West 3.0mph /  4.8km/h 3.0mph /  4.8km/h 83% 0.00in /  0mm 14 W/m2
17:08 37.3 °F /  2.9 °C 32.6 °F /  0.3 °C 30.42in /  1030hPa West 4.0mph /  6.4km/h 8.0mph /  12.9km/h 83% 0.00in /  0mm 11 W/m2
17:14 37.2 °F /  2.9 °C 32.5 °F /  0.3 °C 30.42in /  1030hPa NW 4.0mph /  6.4km/h 6.0mph /  9.7km/h 83% 0.00in /  0mm 7 W/m2
17:20 37.0 °F /  2.8 °C 32.3 °F /  0.2 °C 30.42in /  1030hPa West 4.0mph /  6.4km/h 4.0mph /  6.4km/h 83% 0.00in /  0mm 11 W/m2
17:26 37.0 °F /  2.8 °C 32.3 °F /  0.2 °C 30.44in /  1030.7hPa WNW 4.0mph /  6.4km/h 6.0mph /  9.7km/h 83% 0.00in /  0mm 7 W/m2
17:32 36.9 °F /  2.7 °C 32.2 °F /  0.1 °C 30.44in /  1030.7hPa NW 3.0mph /  4.8km/h 5.0mph /  8km/h 83% 0.00in /  0mm 5 W/m2
17:38 36.9 °F /  2.7 °C 32.2 °F /  0.1 °C 30.44in /  1030.7hPa WNW 2.0mph /  3.2km/h 5.0mph /  8km/h 83% 0.00in /  0mm 0 W/m2
17:44 36.8 °F /  2.7 °C 32.1 °F /  0.1 °C 30.45in /  1031hPa West 2.0mph /  3.2km/h 4.0mph /  6.4km/h 83% 0.00in /  0mm 0 W/m2
17:50 36.8 °F /  2.7 °C 32.1 °F /  0.1 °C 30.45in /  1031hPa WNW 3.0mph /  4.8km/h 3.0mph /  4.8km/h 83% 0.00in /  0mm 0 W/m2
17:56 36.8 °F /  2.7 °C 32.1 °F /  0.1 °C 30.45in /  1031hPa NW 3.0mph /  4.8km/h 3.0mph /  4.8km/h 83% 0.00in /  0mm 0 W/m2
18:02 36.8 °F /  2.7 °C 31.8 °F /  -0.1 °C 30.45in /  1031hPa West 2.0mph /  3.2km/h 2.0mph /  3.2km/h 82% 0.00in /  0mm 0 W/m2
18:08 36.8 °F /  2.7 °C 31.8 °F /  -0.1 °C 30.46in /  1031.4hPa WNW 2.0mph /  3.2km/h 3.0mph /  4.8km/h 82% 0.00in /  0mm 0 W/m2
18:14 36.8 °F /  2.7 °C 31.8 °F /  -0.1 °C 30.46in /  1031.4hPa WNW 2.0mph /  3.2km/h 2.0mph /  3.2km/h 82% 0.00in /  0mm 0 W/m2
18:20 36.7 °F /  2.6 °C 31.7 °F /  -0.2 °C 30.47in /  1031.7hPa WNW 1.0mph /  1.6km/h 2.0mph /  3.2km/h 82% 0.00in /  0mm 0 W/m2
18:26 36.7 °F /  2.6 °C 31.7 °F /  -0.2 °C 30.47in /  1031.7hPa WSW 2.0mph /  3.2km/h 2.0mph /  3.2km/h 82% 0.00in /  0mm 0 W/m2
18:32 36.6 °F /  2.6 °C 31.3 °F /  -0.4 °C 30.47in /  1031.7hPa NW 2.0mph /  3.2km/h 5.0mph /  8km/h 81% 0.00in /  0mm 0 W/m2
18:38 36.5 °F /  2.5 °C 31.2 °F /  -0.4 °C 30.47in /  1031.7hPa WNW 3.0mph /  4.8km/h 5.0mph /  8km/h 81% 0.00in /  0mm 0 W/m2
18:44 36.5 °F /  2.5 °C 30.9 °F /  -0.6 °C 30.48in /  1032.1hPa WNW 3.0mph /  4.8km/h 3.0mph /  4.8km/h 80% 0.00in /  0mm 0 W/m2
18:50 36.4 °F /  2.4 °C 30.8 °F /  -0.7 °C 30.48in /  1032.1hPa WNW 3.0mph /  4.8km/h 4.0mph /  6.4km/h 80% 0.00in /  0mm 0 W/m2
18:56 36.3 °F /  2.4 °C 30.7 °F /  -0.7 °C 30.49in /  1032.4hPa West 3.0mph /  4.8km/h 4.0mph /  6.4km/h 80% 0.00in /  0mm 0 W/m2
19:02 36.3 °F /  2.4 °C 30.7 °F /  -0.7 °C 30.49in /  1032.4hPa WNW 3.0mph /  4.8km/h 3.0mph /  4.8km/h 80% 0.00in /  0mm 0 W/m2
19:08 36.2 °F /  2.3 °C 30.9 °F /  -0.6 °C 30.49in /  1032.4hPa WNW 2.0mph /  3.2km/h 3.0mph /  4.8km/h 81% 0.00in /  0mm 0 W/m2
19:14 36.2 °F /  2.3 °C 30.6 °F /  -0.8 °C 30.50in /  1032.7hPa West 3.0mph /  4.8km/h 5.0mph /  8km/h 80% 0.00in /  0mm 0 W/m2
19:20 36.0 °F /  2.2 °C 30.4 °F /  -0.9 °C 30.49in /  1032.4hPa WNW 3.0mph /  4.8km/h 3.0mph /  4.8km/h 80% 0.00in /  0mm 0 W/m2
19:26 36.0 °F /  2.2 °C 30.7 °F /  -0.7 °C 30.49in /  1032.4hPa WNW 2.0mph /  3.2km/h 4.0mph /  6.4km/h 81% 0.00in /  0mm 0 W/m2
19:32 35.9 °F /  2.2 °C 30.3 °F /  -0.9 °C 30.49in /  1032.4hPa West 3.0mph /  4.8km/h 3.0mph /  4.8km/h 80% 0.00in /  0mm 0 W/m2
19:38 35.9 °F /  2.2 °C 30.3 °F /  -0.9 °C 30.50in /  1032.7hPa WNW 2.0mph /  3.2km/h 5.0mph /  8km/h 80% 0.00in /  0mm 0 W/m2
19:44 35.8 °F /  2.1 °C 30.5 °F /  -0.8 °C 30.50in /  1032.7hPa WNW 1.0mph /  1.6km/h 3.0mph /  4.8km/h 81% 0.00in /  0mm 0 W/m2
19:50 35.8 °F /  2.1 °C 30.5 °F /  -0.8 °C 30.51in /  1033.1hPa WNW 1.0mph /  1.6km/h 1.0mph /  1.6km/h 81% 0.00in /  0mm 0 W/m2
19:56 35.9 °F /  2.2 °C 30.6 °F /  -0.8 °C 30.51in /  1033.1hPa WNW 1.0mph /  1.6km/h 1.0mph /  1.6km/h 81% 0.00in /  0mm 0 W/m2
20:02 35.9 °F /  2.2 °C 30.6 °F /  -0.8 °C 30.52in /  1033.4hPa Calm   2.0mph /  3.2km/h 81% 0.00in /  0mm 0 W/m2
20:08 35.9 °F /  2.2 °C 30.6 °F /  -0.8 °C 30.52in /  1033.4hPa WNW 1.0mph /  1.6km/h 2.0mph /  3.2km/h 81% 0.00in /  0mm 0 W/m2
20:14 35.8 °F /  2.1 °C 30.5 °F /  -0.8 °C 30.52in /  1033.4hPa WNW 1.0mph /  1.6km/h 3.0mph /  4.8km/h 81% 0.00in /  0mm 0 W/m2
20:20 35.8 °F /  2.1 °C 30.5 °F /  -0.8 °C 30.52in /  1033.4hPa West 2.0mph /  3.2km/h 2.0mph /  3.2km/h 81% 0.00in /  0mm 0 W/m2
20:26 35.7 °F /  2.1 °C 30.4 °F /  -0.9 °C 30.52in /  1033.4hPa NW 2.0mph /  3.2km/h 3.0mph /  4.8km/h 81% 0.00in /  0mm 0 W/m2
20:32 35.7 °F /  2.1 °C 30.1 °F /  -1.1 °C 30.52in /  1033.4hPa WNW 2.0mph /  3.2km/h 2.0mph /  3.2km/h 80% 0.00in /  0mm 0 W/m2
20:38 35.7 °F /  2.1 °C 30.1 °F /  -1.1 °C 30.52in /  1033.4hPa WNW 1.0mph /  1.6km/h 2.0mph /  3.2km/h 80% 0.00in /  0mm 0 W/m2
20:44 35.6 °F /  2 °C 30.0 °F /  -1.1 °C 30.52in /  1033.4hPa NW 1.0mph /  1.6km/h 1.0mph /  1.6km/h 80% 0.00in /  0mm 0 W/m2
20:50 35.5 °F /  1.9 °C 29.9 °F /  -1.2 °C 30.52in /  1033.4hPa NW 1.0mph /  1.6km/h 1.0mph /  1.6km/h 80% 0.00in /  0mm 0 W/m2
20:56 35.5 °F /  1.9 °C 29.9 °F /  -1.2 °C 30.52in /  1033.4hPa NW 1.0mph /  1.6km/h 3.0mph /  4.8km/h 80% 0.00in /  0mm 0 W/m2
21:02 35.5 °F /  1.9 °C 29.9 °F /  -1.2 °C 30.52in /  1033.4hPa NW 1.0mph /  1.6km/h 1.0mph /  1.6km/h 80% 0.00in /  0mm 0 W/m2
21:08 35.4 °F /  1.9 °C 29.8 °F /  -1.2 °C 30.53in /  1033.7hPa NW 1.0mph /  1.6km/h 4.0mph /  6.4km/h 80% 0.00in /  0mm 0 W/m2
21:14 35.3 °F /  1.8 °C 29.7 °F /  -1.3 °C 30.53in /  1033.7hPa WNW 2.0mph /  3.2km/h 3.0mph /  4.8km/h 80% 0.00in /  0mm 0 W/m2
21:20 35.3 °F /  1.8 °C 29.7 °F /  -1.3 °C 30.53in /  1033.7hPa WNW 2.0mph /  3.2km/h 2.0mph /  3.2km/h 80% 0.00in /  0mm 0 W/m2
21:26 35.2 °F /  1.8 °C 29.6 °F /  -1.3 °C 30.54in /  1034.1hPa WNW 2.0mph /  3.2km/h 3.0mph /  4.8km/h 80% 0.00in /  0mm 0 W/m2
21:32 35.2 °F /  1.8 °C 29.3 °F /  -1.5 °C 30.55in /  1034.4hPa West 2.0mph /  3.2km/h 3.0mph /  4.8km/h 79% 0.00in /  0mm 0 W/m2
21:38 35.1 °F /  1.7 °C 29.6 °F /  -1.3 °C 30.54in /  1034.1hPa NNW 1.0mph /  1.6km/h 3.0mph /  4.8km/h 80% 0.00in /  0mm 0 W/m2
21:44 35.1 °F /  1.7 °C 29.2 °F /  -1.6 °C 30.54in /  1034.1hPa NW 2.0mph /  3.2km/h 4.0mph /  6.4km/h 79% 0.00in /  0mm 0 W/m2
21:50 35.0 °F /  1.7 °C 29.1 °F /  -1.6 °C 30.54in /  1034.1hPa WNW 2.0mph /  3.2km/h 4.0mph /  6.4km/h 79% 0.00in /  0mm 0 W/m2
21:56 35.0 °F /  1.7 °C 29.1 °F /  -1.6 °C 30.55in /  1034.4hPa NW 3.0mph /  4.8km/h 4.0mph /  6.4km/h 79% 0.00in /  0mm 0 W/m2
22:02 35.0 °F /  1.7 °C 29.1 °F /  -1.6 °C 30.55in /  1034.4hPa NW 2.0mph /  3.2km/h 4.0mph /  6.4km/h 79% 0.00in /  0mm 0 W/m2
22:08 35.0 °F /  1.7 °C 29.1 °F /  -1.6 °C 30.55in /  1034.4hPa NW 2.0mph /  3.2km/h 4.0mph /  6.4km/h 79% 0.00in /  0mm 0 W/m2
22:14 35.0 °F /  1.7 °C 29.1 °F /  -1.6 °C 30.55in /  1034.4hPa NW 2.0mph /  3.2km/h 3.0mph /  4.8km/h 79% 0.00in /  0mm 0 W/m2
22:20 34.9 °F /  1.6 °C 29.0 °F /  -1.7 °C 30.55in /  1034.4hPa West 2.0mph /  3.2km/h 3.0mph /  4.8km/h 79% 0.00in /  0mm 0 W/m2
22:26 34.9 °F /  1.6 °C 29.0 °F /  -1.7 °C 30.55in /  1034.4hPa WNW 2.0mph /  3.2km/h 3.0mph /  4.8km/h 79% 0.00in /  0mm 0 W/m2
22:32 34.8 °F /  1.6 °C 29.0 °F /  -1.7 °C 30.55in /  1034.4hPa WNW 2.0mph /  3.2km/h 2.0mph /  3.2km/h 79% 0.00in /  0mm 0 W/m2
22:38 34.7 °F /  1.5 °C 28.9 °F /  -1.7 °C 30.55in /  1034.4hPa WNW 1.0mph /  1.6km/h 2.0mph /  3.2km/h 79% 0.00in /  0mm 0 W/m2
22:44 34.6 °F /  1.4 °C 28.8 °F /  -1.8 °C 30.55in /  1034.4hPa WNW 1.0mph /  1.6km/h 2.0mph /  3.2km/h 79% 0.00in /  0mm 0 W/m2
22:50 34.5 °F /  1.4 °C 28.7 °F /  -1.8 °C 30.55in /  1034.4hPa WNW 1.0mph /  1.6km/h 1.0mph /  1.6km/h 79% 0.00in /  0mm 0 W/m2
22:56 34.4 °F /  1.3 °C 28.9 °F /  -1.7 °C 30.55in /  1034.4hPa Calm   2.0mph /  3.2km/h 80% 0.00in /  0mm 0 W/m2
23:02 34.3 °F /  1.3 °C 28.8 °F /  -1.8 °C 30.56in /  1034.8hPa WNW 1.0mph /  1.6km/h 2.0mph /  3.2km/h 80% 0.00in /  0mm 0 W/m2
23:08 34.2 °F /  1.2 °C 28.7 °F /  -1.8 °C 30.56in /  1034.8hPa WNW 1.0mph /  1.6km/h 2.0mph /  3.2km/h 80% 0.00in /  0mm 0 W/m2
23:14 34.1 °F /  1.2 °C 28.6 °F /  -1.9 °C 30.56in /  1034.8hPa WNW 1.0mph /  1.6km/h 2.0mph /  3.2km/h 80% 0.00in /  0mm 0 W/m2
23:20 34.0 °F /  1.1 °C 28.5 °F /  -1.9 °C 30.56in /  1034.8hPa WNW 1.0mph /  1.6km/h 2.0mph /  3.2km/h 80% 0.00in /  0mm 0 W/m2
23:26 33.8 °F /  1 °C 28.6 °F /  -1.9 °C 30.56in /  1034.8hPa WNW 1.0mph /  1.6km/h 2.0mph /  3.2km/h 81% 0.00in /  0mm 0 W/m2
23:32 33.7 °F /  0.9 °C 28.5 °F /  -1.9 °C 30.56in /  1034.8hPa WNW 1.0mph /  1.6km/h 2.0mph /  3.2km/h 81% 0.00in /  0mm 0 W/m2
23:38 33.6 °F /  0.9 °C 28.4 °F /  -2 °C 30.56in /  1034.8hPa WNW 1.0mph /  1.6km/h 2.0mph /  3.2km/h 81% 0.00in /  0mm 0 W/m2
23:44 33.5 °F /  0.8 °C 28.3 °F /  -2.1 °C 30.56in /  1034.8hPa WNW 1.0mph /  1.6km/h 1.0mph /  1.6km/h 81% 0.00in /  0mm 0 W/m2
23:50 33.4 °F /  0.8 °C 28.2 °F /  -2.1 °C 30.57in /  1035.1hPa WNW 1.0mph /  1.6km/h 1.0mph /  1.6km/h 81% 0.00in /  0mm 0 W/m2
23:56 33.4 °F /  0.8 °C 28.2 °F /  -2.1 °C 30.57in /  1035.1hPa WNW 1.0mph /  1.6km/h 1.0mph /  1.6km/h 81% 0.00in /  0mm 0 W/m2
Country Meadow, Clay, NY, USA
Compliments of Weather Underground - 2 mb